Time;durP1;ratioP1;P1;durP2;ratioP2;P2;SDS_P1;SDS_P2;PMS_P1;PMS_P2;Temp;Humidity;BMP_temperature;BMP_pressure;BME280_temperature;BME280_humidity;BME280_pressure;Samples;Min_cycle;Max_cycle;Signal;HPM_P1;HPM_P2
2022/10/03 00:02:53;;;;;;;26.70;25.00;;;;;;;14.91;59.45;102480.03;5034173;28;20136;-76
2022/10/03 00:05:30;;;;;;;28.25;26.10;;;;;;;14.89;59.54;102482.16;5034111;28;20029;-76
2022/10/03 00:08:17;;;;;;;26.50;24.95;;;;;;;14.88;59.36;102474.22;5033216;28;20029;-76
2022/10/03 00:11:07;;;;;;;27.98;25.77;;;;;;;14.87;59.30;102475.28;5051108;28;20424;-76
2022/10/03 00:13:47;;;;;;;25.70;23.77;;;;;;;14.85;59.62;102482.84;5054559;28;20048;-76
2022/10/03 00:16:23;;;;;;;26.27;24.58;;;;;;;14.82;59.27;102475.97;5050507;28;20155;-77
2022/10/03 00:19:23;;;;;;;27.15;25.00;;;;;;;14.82;58.89;102486.84;5037132;28;20028;-77
2022/10/03 00:22:04;;;;;;;27.17;25.05;;;;;;;14.80;59.51;102485.41;5031920;28;20032;-77
2022/10/03 00:24:47;;;;;;;24.55;22.83;;;;;;;14.78;59.44;102487.53;5033863;28;20094;-77
2022/10/03 00:27:37;;;;;;;25.30;23.70;;;;;;;14.76;59.53;102479.59;5039836;28;20055;-77
2022/10/03 00:30:18;;;;;;;27.15;25.55;;;;;;;14.75;59.48;102490.72;5033588;28;20038;-77
2022/10/03 00:33:02;;;;;;;25.23;23.63;;;;;;;14.73;59.52;102498.28;5033084;28;20038;-77
2022/10/03 00:35:45;;;;;;;25.55;23.98;;;;;;;14.71;59.33;102498.47;5040346;28;20029;-77
2022/10/03 00:38:52;;;;;;;25.83;23.88;;;;;;;14.69;59.18;102501.44;5033533;28;20034;-77
2022/10/03 00:41:29;;;;;;;24.60;23.30;;;;;;;14.67;59.31;102497.28;5022267;28;20072;-77
2022/10/03 00:43:57;;;;;;;26.25;24.65;;;;;;;14.66;59.42;102503.78;5032675;28;20048;-77
2022/10/03 00:46:34;;;;;;;26.70;24.90;;;;;;;14.64;59.28;102506.75;5046592;28;20040;-77
2022/10/03 00:49:14;;;;;;;25.45;23.88;;;;;;;14.62;59.59;102500.69;5050909;28;20562;-77
2022/10/03 00:52:25;;;;;;;25.33;23.95;;;;;;;14.60;59.18;102502.81;5052835;28;20481;-76
2022/10/03 00:55:02;;;;;;;25.83;24.23;;;;;;;14.59;59.49;102516.63;5032981;28;20088;-79
2022/10/03 00:57:49;;;;;;;25.13;23.10;;;;;;;14.57;59.50;102514.13;5044683;28;20411;-79
2022/10/03 01:00:32;;;;;;;26.10;24.45;;;;;;;14.55;59.37;102516.25;5039917;28;20028;-79
2022/10/03 01:03:23;;;;;;;26.35;24.25;;;;;;;14.53;59.37;102522.94;5033825;28;20033;-78
2022/10/03 01:05:56;;;;;;;24.80;23.15;;;;;;;14.52;59.30;102524.00;5029711;28;20046;-78
2022/10/03 01:08:46;;;;;;;24.98;23.58;;;;;;;14.50;59.18;102530.47;5033450;28;20148;-79
2022/10/03 01:11:21;;;;;;;25.27;23.63;;;;;;;14.49;59.41;102530.72;5034510;28;20037;-78
2022/10/03 01:14:04;;;;;;;27.48;25.73;;;;;;;14.48;59.34;102548.09;5036687;28;20028;-78
2022/10/03 01:16:53;;;;;;;25.95;24.02;;;;;;;14.45;59.28;102530.31;5051593;28;20033;-76
2022/10/03 01:19:46;;;;;;;23.65;22.35;;;;;;;14.44;59.56;102545.00;5051577;28;20035;-77
2022/10/03 01:22:44;;;;;;;23.45;22.08;;;;;;;14.42;59.17;102540.84;5048025;28;20037;-77
2022/10/03 01:25:25;;;;;;;24.60;22.88;;;;;;;14.40;59.26;102543.75;5039158;28;20064;-77
2022/10/03 01:31:08;;;;;;;24.70;23.27;;;;;;;14.36;59.22;102539.00;5050207;28;20043;-77
2022/10/03 01:33:45;;;;;;;25.38;23.60;;;;;;;14.36;59.25;102541.72;5044119;28;20041;-77
2022/10/03 01:36:27;;;;;;;24.80;23.30;;;;;;;14.34;59.52;102550.13;5047130;28;20036;-77
2022/10/03 01:39:04;;;;;;;25.65;24.10;;;;;;;14.32;59.35;102549.50;5052104;28;20102;-78
2022/10/03 01:41:51;;;;;;;25.33;23.90;;;;;;;14.31;59.10;102549.72;5042665;28;20033;-77
2022/10/03 01:44:27;;;;;;;25.70;24.30;;;;;;;14.29;59.32;102552.66;5032822;28;20079;-78
2022/10/03 01:47:21;;;;;;;26.13;24.55;;;;;;;14.28;59.31;102553.69;5037827;28;20033;-78
2022/10/03 01:50:03;;;;;;;25.15;23.70;;;;;;;14.25;59.43;102538.69;5022919;28;20124;-77
2022/10/03 01:52:52;;;;;;;25.20;23.80;;;;;;;14.23;59.08;102538.06;5034283;28;20035;-78
2022/10/03 01:55:24;;;;;;;24.15;22.50;;;;;;;14.22;59.25;102538.31;5050708;28;20432;-76
2022/10/03 01:58:11;;;;;;;25.63;23.98;;;;;;;14.21;59.26;102540.19;5043579;28;20119;-79
2022/10/03 02:01:06;;;;;;;25.52;23.85;;;;;;;14.19;59.50;102545.00;5032334;28;20516;-78
2022/10/03 02:03:51;;;;;;;23.15;21.95;;;;;;;14.17;59.09;102547.13;5031707;28;20033;-77
2022/10/03 02:06:21;;;;;;;23.70;22.17;;;;;;;14.16;59.47;102545.47;5049155;28;20554;-78
2022/10/03 02:08:59;;;;;;;25.52;23.80;;;;;;;14.14;59.33;102547.56;5032273;28;20069;-77
2022/10/03 02:11:34;;;;;;;23.88;22.58;;;;;;;14.13;59.26;102547.78;5036856;28;20037;-78
2022/10/03 02:14:33;;;;;;;26.05;24.50;;;;;;;14.11;58.94;102539.00;5043165;28;20036;-77
2022/10/03 02:17:06;;;;;;;26.00;23.95;;;;;;;14.10;59.29;102542.81;5040268;28;20470;-77
2022/10/03 02:20:03;;;;;;;23.83;22.23;;;;;;;14.07;59.33;102535.91;5051210;28;20067;-77
2022/10/03 02:22:43;;;;;;;23.33;22.02;;;;;;;14.06;58.95;102539.69;5012561;28;20041;-77
2022/10/03 02:25:30;;;;;;;23.42;21.88;;;;;;;14.04;59.12;102547.25;5049464;28;20025;-77
2022/10/03 02:28:13;;;;;;;26.40;24.77;;;;;;;14.02;59.52;102544.72;5051230;28;20049;-78
2022/10/03 02:30:56;;;;;;;24.05;22.65;;;;;;;14.00;59.21;102557.69;5051625;28;20112;-78
2022/10/03 02:33:56;;;;;;;23.13;21.73;;;;;;;13.99;59.21;102553.34;5048389;28;20076;-78
2022/10/03 02:36:41;;;;;;;24.30;22.70;;;;;;;13.95;59.19;102552.09;5031976;28;20038;-78
2022/10/03 02:39:15;;;;;;;24.48;23.00;;;;;;;13.94;59.34;102550.44;5040550;28;20094;-78
2022/10/03 02:42:15;;;;;;;24.17;22.67;;;;;;;13.93;59.28;102547.94;5043434;28;20038;-78
2022/10/03 02:45:05;;;;;;;24.02;22.73;;;;;;;13.91;59.19;102539.19;5031556;28;20033;-78
2022/10/03 02:48:17;;;;;;;23.55;22.05;;;;;;;13.89;59.27;102533.97;5031204;28;20054;-78
2022/10/03 02:51:00;;;;;;;23.05;21.65;;;;;;;13.88;59.13;102539.63;5019921;28;20037;-78
2022/10/03 02:53:47;;;;;;;22.83;21.52;;;;;;;13.85;59.17;102538.19;5041366;28;20029;-78
2022/10/03 02:57:02;;;;;;;23.02;21.42;;;;;;;13.83;59.20;102541.13;5035115;28;20182;-78
2022/10/03 03:00:04;;;;;;;23.50;22.23;;;;;;;13.82;59.32;102542.16;5043473;28;20053;-78
2022/10/03 03:02:30;;;;;;;22.67;21.38;;;;;;;13.79;59.00;102539.91;5035843;28;20150;-78
2022/10/03 03:05:26;;;;;;;22.83;21.48;;;;;;;13.80;59.19;102540.72;5036142;28;20096;-78
2022/10/03 03:08:13;;;;;;;22.83;21.52;;;;;;;13.77;59.08;102536.56;5037029;28;20033;-77
2022/10/03 03:11:07;;;;;;;24.65;22.52;;;;;;;13.76;59.22;102547.66;5034242;28;20484;-79
2022/10/03 03:14:20;;;;;;;24.08;22.42;;;;;;;13.75;59.03;102556.84;5035367;28;20025;-77
2022/10/03 03:17:04;;;;;;;24.15;22.58;;;;;;;13.73;59.23;102553.53;5017804;28;20043;-77
2022/10/03 03:19:30;;;;;;;23.30;22.02;;;;;;;13.72;59.23;102557.28;4996385;28;20516;-77
2022/10/03 03:22:09;;;;;;;23.08;21.70;;;;;;;13.69;59.30;102547.72;5026799;28;20128;-76
2022/10/03 03:25:06;;;;;;;23.02;21.50;;;;;;;13.69;59.11;102546.88;5035150;28;20025;-78
2022/10/03 03:27:52;;;;;;;23.80;22.38;;;;;;;13.65;59.11;102546.47;5035239;28;20099;-77
2022/10/03 03:30:22;;;;;;;23.08;21.58;;;;;;;13.64;59.11;102553.78;5050632;28;20039;-78
2022/10/03 03:32:47;;;;;;;22.20;21.08;;;;;;;13.63;59.03;102557.56;5054364;28;20104;-78
2022/10/03 03:35:32;;;;;;;25.05;23.35;;;;;;;13.62;59.31;102553.16;5050175;28;20152;-77
2022/10/03 03:38:23;;;;;;;23.83;22.40;;;;;;;13.60;58.98;102547.13;5033892;28;20033;-78
2022/10/03 03:41:16;;;;;;;24.92;23.50;;;;;;;13.58;59.23;102548.38;5034700;28;20109;-78
2022/10/03 03:43:58;;;;;;;23.73;22.42;;;;;;;13.56;59.03;102545.91;5034780;28;20032;-78
2022/10/03 03:46:45;;;;;;;23.58;22.15;;;;;;;13.56;59.42;102555.94;5045659;28;20044;-78
2022/10/03 03:49:29;;;;;;;27.02;25.33;;;;;;;13.55;58.93;102559.69;5048760;28;20029;-79
2022/10/03 03:52:20;;;;;;;23.55;22.25;;;;;;;13.53;59.10;102562.66;5034381;28;20061;-77
2022/10/03 03:55:01;;;;;;;23.63;22.33;;;;;;;13.52;59.44;102568.28;5055076;28;20067;-79
2022/10/03 03:57:51;;;;;;;22.75;21.48;;;;;;;13.49;59.03;102563.28;5045775;28;20029;-79
2022/10/03 04:00:20;;;;;;;25.52;23.85;;;;;;;13.49;59.08;102568.72;5032009;28;20030;-79
2022/10/03 04:02:57;;;;;;;23.30;22.02;;;;;;;13.47;59.06;102568.09;5036172;28;20037;-79
2022/10/03 04:05:53;;;;;;;22.02;20.75;;;;;;;13.46;58.97;102585.44;5034140;28;20037;-79
2022/10/03 04:08:46;;;;;;;22.63;21.33;;;;;;;13.44;59.25;102569.38;5040575;28;20041;-79
2022/10/03 04:11:44;;;;;;;26.00;24.20;;;;;;;13.44;59.00;102571.25;5050138;28;20198;-79
2022/10/03 04:14:33;;;;;;;23.88;22.42;;;;;;;13.41;59.29;102572.53;5049724;28;20515;-79
2022/10/03 04:20:15;;;;;;;22.58;21.27;;;;;;;13.37;59.02;102566.69;5039440;28;20445;-79
2022/10/03 04:23:03;;;;;;;22.15;20.95;;;;;;;13.36;59.02;102572.34;5048596;28;20091;-79
2022/10/03 04:26:17;;;;;;;23.02;21.60;;;;;;;13.34;59.09;102569.00;5034058;28;20487;-79
2022/10/03 04:29:03;;;;;;;23.05;21.25;;;;;;;13.33;58.84;102564.59;5033948;28;20037;-80
2022/10/03 04:31:48;;;;;;;21.30;20.10;;;;;;;13.30;59.09;102563.16;5037416;28;20064;-80
2022/10/03 04:34:38;;;;;;;24.85;23.15;;;;;;;13.29;58.94;102568.81;5036783;28;20098;-80
2022/10/03 04:37:19;;;;;;;23.73;21.83;;;;;;;13.29;58.98;102568.81;5052688;28;20025;-79
2022/10/03 04:40:17;;;;;;;20.20;19.00;;;;;;;13.27;59.07;102562.78;5050373;28;20068;-79
2022/10/03 04:42:51;;;;;;;21.55;20.15;;;;;;;13.26;58.91;102566.50;5034183;28;20033;-77
2022/10/03 04:45:38;;;;;;;22.83;21.17;;;;;;;13.24;59.29;102563.19;5059885;28;20481;-79
2022/10/03 04:48:27;;;;;;;21.95;20.83;;;;;;;13.24;59.16;102568.59;5040057;28;20029;-78
2022/10/03 04:51:19;;;;;;;20.90;19.55;;;;;;;13.21;59.08;102565.28;5033440;28;20033;-79
2022/10/03 04:54:08;;;;;;;21.63;20.33;;;;;;;13.20;59.06;102573.63;5050633;28;20166;-79
2022/10/03 04:56:33;;;;;;;22.23;20.67;;;;;;;13.18;58.97;102573.84;5048267;28;20370;-80
2022/10/03 04:59:07;;;;;;;21.67;20.35;;;;;;;13.18;59.22;102571.13;5048169;28;20079;-80
2022/10/03 05:02:03;;;;;;;21.63;20.33;;;;;;;13.18;59.07;102578.44;5033111;28;20033;-80
2022/10/03 05:05:06;;;;;;;21.10;20.00;;;;;;;13.17;59.27;102583.00;5044388;28;20454;-80
2022/10/03 05:07:42;;;;;;;21.15;19.95;;;;;;;13.14;59.08;102586.16;5047169;28;20034;-80
2022/10/03 05:10:38;;;;;;;22.60;21.00;;;;;;;13.14;59.34;102590.78;5031878;28;20367;-78
2022/10/03 05:13:29;;;;;;;24.23;22.80;;;;;;;13.13;59.26;102591.84;5043949;28;20073;-74
2022/10/03 05:16:15;;;;;;;21.25;19.95;;;;;;;13.12;59.08;102595.56;5047736;28;20124;-77
2022/10/03 05:19:19;;;;;;;22.52;21.20;;;;;;;13.10;59.21;102586.81;5035160;28;20029;-78
2022/10/03 05:22:01;;;;;;;22.50;21.23;;;;;;;13.08;59.13;102589.75;5020888;28;20034;-80
2022/10/03 05:24:44;;;;;;;21.20;20.00;;;;;;;13.07;59.22;102579.94;5046192;28;20124;-77
2022/10/03 05:27:56;;;;;;;22.70;20.98;;;;;;;13.07;59.55;102598.09;5044586;28;20068;-79
2022/10/03 05:30:33;;;;;;;21.95;20.65;;;;;;;13.06;59.02;102599.16;5009635;28;20038;-76
2022/10/03 05:33:05;;;;;;;22.00;20.80;;;;;;;13.04;59.24;102596.66;5010340;28;20481;-78
2022/10/03 05:35:40;;;;;;;23.13;21.33;;;;;;;13.04;59.22;102587.69;5037038;28;20508;-75
2022/10/03 05:38:15;;;;;;;23.05;21.75;;;;;;;13.03;59.29;102596.84;5032191;28;20037;-75
2022/10/03 05:40:47;;;;;;;22.67;21.33;;;;;;;13.02;59.43;102598.72;5032694;28;20467;-76
2022/10/03 05:43:37;;;;;;;22.92;21.63;;;;;;;13.02;59.41;102596.00;5031763;28;20021;-76
2022/10/03 05:46:09;;;;;;;21.90;20.48;;;;;;;12.99;59.15;102597.28;5040554;28;20033;-79
2022/10/03 05:48:49;;;;;;;21.70;20.00;;;;;;;13.00;59.23;102606.25;5032288;28;20068;-79
2022/10/03 05:51:38;;;;;;;23.58;22.05;;;;;;;12.98;59.36;102605.66;5030439;28;20033;-79
2022/10/03 05:54:21;;;;;;;21.33;19.83;;;;;;;12.97;59.29;102606.69;5032597;28;20033;-78
2022/10/03 05:57:08;;;;;;;23.48;21.55;;;;;;;12.94;59.24;102602.50;5035070;28;20036;-80
2022/10/03 06:00:01;;;;;;;22.48;20.98;;;;;;;12.94;59.31;102607.09;5050175;28;20060;-79
2022/10/03 06:02:38;;;;;;;22.77;21.00;;;;;;;12.93;58.97;102613.59;5032916;28;20029;-77
2022/10/03 06:05:28;;;;;;;22.27;20.92;;;;;;;12.92;59.22;102622.75;5041215;28;20039;-80
2022/10/03 06:08:04;;;;;;;22.48;21.17;;;;;;;12.91;59.18;102626.53;5050411;28;20059;-80
2022/10/03 06:11:02;;;;;;;22.58;21.08;;;;;;;12.90;59.38;102633.84;5050324;28;20029;-79
2022/10/03 06:13:52;;;;;;;24.42;22.70;;;;;;;12.89;59.30;102624.00;5051017;28;20104;-77
2022/10/03 06:16:36;;;;;;;23.70;22.30;;;;;;;12.88;59.53;102622.34;5047122;28;20029;-79
2022/10/03 06:19:08;;;;;;;21.75;20.35;;;;;;;12.87;59.39;102622.56;5040509;28;20033;-78
2022/10/03 06:21:58;;;;;;;22.05;19.83;;;;;;;12.86;59.58;102629.88;5039277;28;20041;-79
2022/10/03 06:24:55;;;;;;;22.10;20.73;;;;;;;12.85;59.39;102627.34;5031080;28;20030;-79
2022/10/03 06:27:38;;;;;;;22.60;21.20;;;;;;;12.84;59.20;102647.41;5038465;28;20049;-79
2022/10/03 06:30:30;;;;;;;23.05;21.65;;;;;;;12.83;59.35;102627.59;5038919;28;20044;-79
2022/10/03 06:33:05;;;;;;;22.27;20.92;;;;;;;12.83;59.34;102630.28;5045541;28;20064;-76
2022/10/03 06:35:56;;;;;;;23.50;21.88;;;;;;;12.82;59.54;102635.91;5045810;28;20465;-76
2022/10/03 06:38:59;;;;;;;24.25;22.63;;;;;;;12.81;59.67;102636.97;5042283;28;20063;-77
2022/10/03 06:41:50;;;;;;;23.55;22.05;;;;;;;12.80;59.46;102636.16;5044160;28;20029;-81
2022/10/03 06:44:33;;;;;;;21.65;20.08;;;;;;;12.77;59.35;102623.00;5043400;28;20140;-79
2022/10/03 06:47:14;;;;;;;24.50;22.83;;;;;;;12.76;59.54;102624.88;5044376;28;20111;-77
2022/10/03 06:50:12;;;;;;;22.58;20.98;;;;;;;12.77;59.55;102633.84;5047222;28;20363;-76
2022/10/03 06:53:16;;;;;;;22.88;21.30;;;;;;;12.76;59.65;102634.91;5045714;28;20465;-78
2022/10/03 06:55:53;;;;;;;22.90;21.60;;;;;;;12.74;59.90;102631.56;5036806;28;20041;-78
2022/10/03 06:58:30;;;;;;;23.38;21.75;;;;;;;12.75;59.25;102633.22;5046810;28;20063;-76
2022/10/03 07:01:11;;;;;;;25.40;23.80;;;;;;;12.75;59.60;102634.06;5046148;28;20881;-78
2022/10/03 07:03:54;;;;;;;24.25;22.45;;;;;;;12.74;59.87;102640.53;5044271;28;20444;-78
2022/10/03 07:06:20;;;;;;;22.85;21.35;;;;;;;12.73;59.51;102641.56;5045363;28;20033;-78
2022/10/03 07:09:10;;;;;;;24.90;23.05;;;;;;;12.73;59.71;102641.56;5040833;28;20036;-78
2022/10/03 07:11:54;;;;;;;22.92;21.33;;;;;;;12.73;59.79;102649.72;5043789;28;20079;-76
2022/10/03 07:14:34;;;;;;;24.63;22.95;;;;;;;12.72;59.85;102649.91;5041177;28;20108;-80
2022/10/03 07:17:21;;;;;;;28.23;23.15;;;;;;;12.72;59.85;102656.16;5045255;28;20071;-80
2022/10/03 07:20:13;;;;;;;24.90;23.27;;;;;;;12.71;59.66;102651.78;5045827;28;20033;-79
2022/10/03 07:23:06;;;;;;;26.90;24.73;;;;;;;12.71;60.13;102651.78;5044851;28;20045;-79
2022/10/03 07:25:34;;;;;;;27.40;25.25;;;;;;;12.71;59.92;102661.81;5040521;28;20527;-78
2022/10/03 07:28:19;;;;;;;24.42;22.50;;;;;;;12.72;60.25;102660.75;5041433;28;20131;-79
2022/10/03 07:30:51;;;;;;;24.40;22.80;;;;;;;12.71;60.37;102656.38;5043577;28;20033;-76
2022/10/03 07:34:11;;;;;;;23.35;21.55;;;;;;;12.72;60.55;102667.00;5042891;28;20029;-79
2022/10/03 07:40:04;;;;;;;24.20;22.60;;;;;;;12.71;60.36;102667.22;5046885;28;20101;-79
2022/10/03 07:42:29;;;;;;;23.92;22.13;;;;;;;12.70;60.43;102674.53;5048295;28;20090;-79
2022/10/03 07:45:06;;;;;;;22.67;21.17;;;;;;;12.70;60.71;102668.25;5047240;28;20036;-80
2022/10/03 07:47:51;;;;;;;25.27;23.52;;;;;;;12.70;61.02;102670.97;5045438;28;20033;-79
2022/10/03 07:51:11;;;;;;;22.13;20.58;;;;;;;12.71;60.93;102675.38;5051198;28;20053;-79
2022/10/03 07:53:39;;;;;;;25.05;23.08;;;;;;;12.71;60.64;102676.19;5010398;28;20044;-79
2022/10/03 07:56:35;;;;;;;22.63;20.98;;;;;;;12.72;60.99;102675.13;5041579;28;20091;-78
2022/10/03 07:59:31;;;;;;;24.38;22.60;;;;;;;12.72;61.09;102687.88;5049474;28;20083;-79
2022/10/03 08:02:27;;;;;;;23.80;22.10;;;;;;;12.73;61.41;102684.13;5046511;28;20112;-79
2022/10/03 08:05:11;;;;;;;24.65;22.67;;;;;;;12.72;61.68;102680.56;5042234;28;20032;-82
2022/10/03 08:07:55;;;;;;;28.23;25.13;;;;;;;12.73;61.34;102681.41;5043110;28;20032;-80
2022/10/03 08:10:51;;;;;;;25.15;22.77;;;;;;;12.73;62.31;102684.97;5045566;28;20047;-79
2022/10/03 08:13:37;;;;;;;23.05;21.55;;;;;;;12.75;62.74;102679.31;5046392;28;20060;-78
2022/10/03 08:16:06;;;;;;;24.08;22.45;;;;;;;12.75;62.11;102679.31;5044283;28;20055;-79
2022/10/03 08:19:16;;;;;;;25.25;23.20;;;;;;;12.75;62.81;102682.88;5046578;28;20041;-80
2022/10/03 08:21:57;;;;;;;24.88;23.00;;;;;;;12.76;62.75;102681.81;5028964;28;20041;-81
2022/10/03 08:24:28;;;;;;;27.92;25.27;;;;;;;12.77;62.67;102679.94;5045056;28;20047;-80
2022/10/03 08:27:30;;;;;;;22.35;20.75;;;;;;;12.77;63.42;102678.09;5044899;28;20072;-79
2022/10/03 08:30:19;;;;;;;24.80;22.73;;;;;;;12.78;63.63;102687.88;5058590;28;20056;-80
2022/10/03 08:33:22;;;;;;;26.27;24.38;;;;;;;12.79;63.97;102696.84;5045733;28;20412;-80
2022/10/03 08:36:09;;;;;;;25.40;22.88;;;;;;;12.81;63.88;102696.63;5043258;28;20479;-79
2022/10/03 08:38:49;;;;;;;28.73;26.13;;;;;;;12.80;64.53;102701.25;5043955;28;20118;-81
2022/10/03 08:41:20;;;;;;;26.58;24.15;;;;;;;12.81;64.38;102702.91;5040796;28;20029;-76
2022/10/03 08:44:33;;;;;;;28.98;25.88;;;;;;;12.84;64.91;102707.06;5046671;28;20037;-77
2022/10/03 08:47:21;;;;;;;26.17;24.10;;;;;;;12.83;64.91;102699.97;5040345;28;20049;-77
2022/10/03 08:50:14;;;;;;;25.92;24.05;;;;;;;12.84;65.29;102702.47;5045773;28;20063;-76
2022/10/03 08:52:46;;;;;;;29.45;26.73;;;;;;;12.86;65.23;102705.81;5042765;28;20030;-77
2022/10/03 08:55:23;;;;;;;25.65;22.95;;;;;;;12.86;65.86;102703.09;5045272;28;20032;-77
2022/10/03 08:58:10;;;;;;;25.88;23.90;;;;;;;12.86;65.93;102700.38;5045794;28;20114;-77
2022/10/03 09:00:53;;;;;;;27.60;25.25;;;;;;;12.88;66.03;102700.19;5044490;28;20091;-73
2022/10/03 09:03:37;;;;;;;25.15;23.17;;;;;;;12.89;65.68;102704.56;5045388;28;20033;-77
2022/10/03 09:06:31;;;;;;;26.15;23.80;;;;;;;12.90;66.09;102701.66;5046107;28;20095;-76
2022/10/03 09:09:06;;;;;;;26.95;24.70;;;;;;;12.91;66.40;102695.16;5047401;28;20487;-77
2022/10/03 09:11:59;;;;;;;29.17;26.75;;;;;;;12.94;66.69;102697.44;5044331;28;20079;-75
2022/10/03 09:14:37;;;;;;;29.40;26.95;;;;;;;12.95;66.36;102695.56;5045666;28;20377;-75
2022/10/03 09:17:34;;;;;;;25.37;23.37;;;;;;;12.96;66.43;102695.38;5046631;28;20123;-76
2022/10/03 09:20:15;;;;;;;26.23;24.00;;;;;;;12.97;67.08;102694.31;5045076;28;20040;-77
2022/10/03 09:22:44;;;;;;;29.73;27.00;;;;;;;12.99;66.46;102691.41;5044312;28;20028;-78
2022/10/03 09:25:18;;;;;;;26.50;24.40;;;;;;;13.02;66.94;102695.56;5046391;28;20393;-80
2022/10/03 09:28:16;;;;;;;29.25;26.60;;;;;;;13.02;67.21;102687.44;5040926;28;20049;-73
2022/10/03 09:30:52;;;;;;;31.20;28.50;;;;;;;13.05;67.48;102689.72;5045400;28;20037;-73
2022/10/03 09:33:40;;;;;;;27.48;25.13;;;;;;;13.09;68.17;102683.66;5046988;28;20439;-75
2022/10/03 09:36:26;;;;;;;28.87;26.47;;;;;;;13.16;67.57;102687.19;5047236;28;20029;-77
2022/10/03 09:39:32;;;;;;;30.55;27.48;;;;;;;13.23;67.76;102689.03;5042629;28;20036;-76
2022/10/03 09:42:10;;;;;;;30.45;27.85;;;;;;;13.25;67.94;102676.94;5031966;28;20446;-75
2022/10/03 09:45:08;;;;;;;31.63;28.20;;;;;;;13.28;68.28;102673.84;5045870;28;20167;-76
2022/10/03 09:47:58;;;;;;;32.75;30.08;;;;;;;13.29;68.66;102670.06;5044414;28;20303;-75
2022/10/03 09:50:55;;;;;;;28.92;26.65;;;;;;;13.30;68.22;102677.16;5047020;28;20104;-76
2022/10/03 09:53:57;;;;;;;29.15;26.77;;;;;;;13.33;68.78;102673.16;5048768;28;20033;-75
2022/10/03 09:56:46;;;;;;;32.05;29.13;;;;;;;13.33;69.01;102668.59;5045518;28;20024;-75
2022/10/03 09:59:36;;;;;;;29.92;27.25;;;;;;;13.35;69.17;102669.19;5040801;28;20037;-76
2022/10/03 10:02:07;;;;;;;29.23;26.67;;;;;;;13.36;68.93;102676.31;5044169;28;20036;-76
2022/10/03 10:04:54;;;;;;;34.38;31.13;;;;;;;13.37;69.04;102664.41;5045772;28;20492;-76
2022/10/03 10:07:38;;;;;;;27.95;25.90;;;;;;;13.40;69.14;102668.56;5045416;28;20472;-76
2022/10/03 10:10:34;;;;;;;27.50;24.90;;;;;;;13.44;69.39;102672.53;5041505;28;20155;-76
2022/10/03 10:13:18;;;;;;;25.67;23.50;;;;;;;13.45;68.83;102670.63;5047519;28;20527;-76
2022/10/03 10:16:08;;;;;;;29.20;26.95;;;;;;;13.48;68.99;102672.91;5044457;28;20037;-76
2022/10/03 10:18:58;;;;;;;27.33;24.85;;;;;;;13.50;68.89;102674.38;5043972;28;20057;-76
2022/10/03 10:21:36;;;;;;;25.65;23.50;;;;;;;13.53;69.07;102664.97;5046317;28;20175;-75
2022/10/03 10:24:13;;;;;;;25.48;23.48;;;;;;;13.55;69.08;102671.00;5044489;28;20033;-76
2022/10/03 10:26:59;;;;;;;27.63;25.33;;;;;;;13.58;69.20;102665.13;5044425;28;20481;-75
2022/10/03 10:29:40;;;;;;;24.23;22.42;;;;;;;13.60;68.30;102672.03;5043461;28;20025;-75
2022/10/03 10:32:51;;;;;;;25.08;23.10;;;;;;;13.63;68.64;102670.75;5041153;28;20072;-77
2022/10/03 10:35:50;;;;;;;25.42;23.67;;;;;;;13.67;68.51;102669.28;5045301;28;20028;-75
2022/10/03 10:38:33;;;;;;;23.73;22.00;;;;;;;13.69;68.26;102664.47;5026833;28;20512;-74
2022/10/03 10:41:36;;;;;;;24.05;22.17;;;;;;;13.72;67.96;102664.03;5043927;28;20029;-74
2022/10/03 10:44:38;;;;;;;25.95;23.90;;;;;;;13.75;68.09;102655.44;5044547;28;20033;-75
2022/10/03 10:47:28;;;;;;;23.42;21.75;;;;;;;13.77;68.19;102656.06;5044931;28;20043;-74
2022/10/03 10:50:31;;;;;;;23.70;21.77;;;;;;;13.80;67.95;102662.97;5046473;28;20108;-74
2022/10/03 10:53:08;;;;;;;24.55;22.75;;;;;;;13.83;67.82;102659.78;5039725;28;20032;-74
2022/10/03 10:55:37;;;;;;;25.25;23.48;;;;;;;13.85;67.59;102666.69;5039580;28;20029;-74
2022/10/03 10:58:11;;;;;;;21.52;20.33;;;;;;;13.90;67.37;102665.19;5044052;28;20037;-74
2022/10/03 11:00:54;;;;;;;26.38;24.50;;;;;;;13.91;67.20;102659.56;5043365;28;20337;-74
2022/10/03 11:03:44;;;;;;;25.35;23.25;;;;;;;13.93;66.95;102662.88;5046549;28;20039;-75
2022/10/03 11:07:03;;;;;;;24.90;22.70;;;;;;;13.99;67.19;102661.19;5045284;28;20178;-74
2022/10/03 11:09:59;;;;;;;25.58;23.40;;;;;;;14.02;66.95;102656.13;5043700;28;20093;-75
2022/10/03 11:12:31;;;;;;;25.58;22.95;;;;;;;14.04;67.04;102648.59;5047900;28;20091;-74
2022/10/03 11:15:21;;;;;;;25.38;23.63;;;;;;;14.08;66.96;102651.69;5045683;28;20049;-76
2022/10/03 11:18:24;;;;;;;27.05;24.92;;;;;;;14.12;67.07;102641.25;5049865;28;20108;-75
2022/10/03 11:21:17;;;;;;;26.60;24.90;;;;;;;14.15;67.01;102643.50;5048554;28;20032;-74
2022/10/03 11:23:57;;;;;;;28.13;25.40;;;;;;;14.17;66.90;102644.97;5044013;28;20036;-74
2022/10/03 11:26:41;;;;;;;25.00;23.30;;;;;;;14.20;67.05;102641.78;5044460;28;20045;-74
2022/10/03 11:29:42;;;;;;;26.20;24.13;;;;;;;14.23;67.00;102641.34;5048481;28;20389;-74
2022/10/03 11:32:23;;;;;;;25.85;23.83;;;;;;;14.26;66.79;102638.22;5044054;28;20103;-74
2022/10/03 11:35:20;;;;;;;26.63;24.83;;;;;;;14.28;67.04;102644.22;5046997;28;20457;-74
2022/10/03 11:38:09;;;;;;;25.83;24.00;;;;;;;14.34;66.93;102649.84;5043261;28;20110;-75
2022/10/03 11:41:07;;;;;;;26.85;24.80;;;;;;;14.36;66.58;102647.75;5047642;28;20064;-74
2022/10/03 11:43:32;;;;;;;26.80;24.88;;;;;;;14.39;66.40;102645.44;5031810;28;20442;-74
2022/10/03 11:46:43;;;;;;;25.90;24.23;;;;;;;14.43;66.59;102640.38;5044479;28;20037;-74
2022/10/03 11:49:46;;;;;;;27.98;25.33;;;;;;;14.46;66.30;102639.91;5043527;28;20076;-74
2022/10/03 11:52:20;;;;;;;26.08;24.17;;;;;;;14.49;66.10;102639.50;5045288;28;20640;-74
2022/10/03 11:54:50;;;;;;;27.67;25.80;;;;;;;14.51;66.35;102634.63;5047846;28;20033;-72
2022/10/03 11:57:26;;;;;;;26.73;25.02;;;;;;;14.55;66.31;102644.06;5049183;28;20037;-72
2022/10/03 12:00:16;;;;;;;28.45;25.95;;;;;;;14.58;65.99;102642.78;5044132;28;20048;-72
2022/10/03 12:03:06;;;;;;;28.42;25.83;;;;;;;14.60;65.68;102638.78;5045559;28;20036;-72
2022/10/03 12:09:09;;;;;;;25.88;24.10;;;;;;;14.67;65.20;102649.63;5046029;28;20044;-72
2022/10/03 12:11:37;;;;;;;27.75;25.98;;;;;;;14.68;65.23;102641.22;5045937;28;20111;-72
2022/10/03 12:14:08;;;;;;;26.95;25.25;;;;;;;14.71;65.27;102635.31;5047173;28;20029;-72
2022/10/03 12:16:44;;;;;;;29.15;27.15;;;;;;;14.74;65.11;102635.94;5045850;28;20028;-72
2022/10/03 12:19:19;;;;;;;27.98;26.00;;;;;;;14.77;65.30;102632.78;5045438;28;20064;-72
2022/10/03 12:21:56;;;;;;;28.33;26.23;;;;;;;14.80;65.13;102625.00;5041225;28;20040;-72
2022/10/03 12:24:28;;;;;;;26.52;24.88;;;;;;;14.83;65.16;102623.72;5046971;28;20043;-72
2022/10/03 12:27:12;;;;;;;29.45;26.80;;;;;;;14.85;64.78;102627.88;5047429;28;20083;-73
2022/10/03 12:29:44;;;;;;;28.48;26.50;;;;;;;14.88;64.97;102623.88;5042367;28;20040;-75
2022/10/03 12:32:28;;;;;;;29.13;27.00;;;;;;;14.92;64.99;102623.19;5042886;28;20658;-73
2022/10/03 12:35:13;;;;;;;28.23;26.10;;;;;;;14.95;65.04;102612.91;5047216;28;20048;-73
2022/10/03 12:38:16;;;;;;;30.30;27.90;;;;;;;14.98;64.92;102609.75;5041433;28;20103;-72
2022/10/03 12:41:03;;;;;;;28.77;26.58;;;;;;;15.00;64.62;102613.91;5041256;28;20064;-72
2022/10/03 12:44:13;;;;;;;26.52;24.92;;;;;;;15.05;64.81;102615.94;5040373;28;21478;-72
2022/10/03 12:47:00;;;;;;;28.40;26.42;;;;;;;15.08;64.48;102615.47;5005052;28;20049;-73
2022/10/03 12:49:36;;;;;;;27.35;25.35;;;;;;;15.10;64.26;102616.09;5003601;28;20041;-74